Time;durP1;ratioP1;P1;durP2;ratioP2;P2;SDS_P1;SDS_P2;PMS_P1;PMS_P2;Temp;Humidity;BMP_temperature;BMP_pressure;BME280_temperature;BME280_humidity;BME280_pressure;Samples;Min_cycle;Max_cycle;Signal;HPM_P1;HPM_P2
2021/04/18 00:00:21;;;;;;;19.95;13.75;;;;;;;6.57;100.00;96515.88;5022951;28;20335;-52
2021/04/18 00:02:50;;;;;;;18.17;14.20;;;;;;;6.51;100.00;96517.19;5022511;28;20472;-51
2021/04/18 00:05:19;;;;;;;17.70;14.35;;;;;;;6.33;100.00;96514.22;5028261;28;20081;-56
2021/04/18 00:07:48;;;;;;;17.67;14.20;;;;;;;6.33;100.00;96513.34;5018999;28;20077;-49
2021/04/18 00:10:16;;;;;;;16.70;13.88;;;;;;;6.40;100.00;96502.31;5027444;28;20092;-48
2021/04/18 00:12:43;;;;;;;15.93;13.85;;;;;;;6.54;100.00;96503.03;5026536;28;20507;-50
2021/04/18 00:15:14;;;;;;;19.52;15.05;;;;;;;6.46;100.00;96497.53;5025537;28;20061;-52
2021/04/18 00:17:41;;;;;;;19.23;14.63;;;;;;;6.44;100.00;96502.91;5025939;28;20088;-53
2021/04/18 00:20:11;;;;;;;18.15;14.73;;;;;;;6.35;100.00;96499.19;5026561;28;20073;-51
2021/04/18 00:22:38;;;;;;;18.40;14.02;;;;;;;6.30;100.00;96496.09;5023432;28;20069;-48
2021/04/18 00:25:08;;;;;;;20.15;14.82;;;;;;;6.22;100.00;96493.22;5026526;28;20073;-51
2021/04/18 00:27:36;;;;;;;15.75;13.68;;;;;;;6.16;100.00;96494.53;5026524;28;20478;-52
2021/04/18 00:30:06;;;;;;;18.52;15.02;;;;;;;6.08;100.00;96488.19;5024904;28;20068;-53
2021/04/18 00:32:43;;;;;;;16.33;13.98;;;;;;;5.96;100.00;96489.16;5071753;27;21172;-49
2021/04/18 00:35:12;;;;;;;17.98;14.10;;;;;;;5.82;100.00;96488.34;5039944;28;20067;-52
2021/04/18 00:37:40;;;;;;;18.20;14.40;;;;;;;5.75;100.00;96476.69;5043621;28;20061;-49
2021/04/18 00:40:10;;;;;;;19.33;15.45;;;;;;;5.77;100.00;96490.47;5031647;28;20077;-53
2021/04/18 00:42:37;;;;;;;20.02;15.07;;;;;;;5.77;100.00;96485.22;5041999;28;20103;-48
2021/04/18 00:45:07;;;;;;;17.50;14.68;;;;;;;5.75;100.00;96495.00;5038739;28;20076;-49
2021/04/18 00:47:34;;;;;;;18.20;14.27;;;;;;;5.79;100.00;96493.00;5055256;28;20537;-48
2021/04/18 00:50:04;;;;;;;18.90;15.10;;;;;;;5.69;100.00;96488.44;5053637;28;20076;-51
2021/04/18 00:52:31;;;;;;;19.02;15.52;;;;;;;5.69;100.00;96483.19;5053320;28;20459;-53
2021/04/18 00:54:58;;;;;;;19.50;14.82;;;;;;;5.89;100.00;96488.72;5050144;28;20436;-48
2021/04/18 00:57:26;;;;;;;18.88;14.77;;;;;;;5.87;100.00;96480.97;5052172;28;20076;-51
2021/04/18 00:59:54;;;;;;;20.95;15.38;;;;;;;5.79;100.00;96485.97;5053112;28;20076;-55
2021/04/18 01:02:21;;;;;;;18.90;14.98;;;;;;;5.64;100.00;96484.47;5056399;28;20064;-55
2021/04/18 01:04:49;;;;;;;19.00;15.02;;;;;;;5.58;100.00;96485.78;5046434;28;20080;-52
2021/04/18 01:07:17;;;;;;;20.63;14.80;;;;;;;5.60;100.00;96481.25;5053750;28;20465;-48
2021/04/18 01:09:45;;;;;;;22.08;15.93;;;;;;;5.64;100.00;96487.94;5055081;28;20080;-51
2021/04/18 01:12:13;;;;;;;19.05;15.40;;;;;;;5.74;100.00;96482.00;5048610;28;20065;-52
2021/04/18 01:14:40;;;;;;;20.67;15.50;;;;;;;5.61;100.00;96482.94;5050180;28;20072;-53
2021/04/18 01:17:08;;;;;;;18.92;15.80;;;;;;;5.62;100.00;96487.22;5056841;28;20076;-51
2021/04/18 01:19:35;;;;;;;20.20;16.17;;;;;;;5.80;100.00;96474.53;5051161;28;20076;-52
2021/04/18 01:22:04;;;;;;;20.08;15.82;;;;;;;5.96;100.00;96476.06;5051667;28;20459;-51
2021/04/18 01:24:32;;;;;;;20.88;16.38;;;;;;;6.05;100.00;96475.34;5048408;28;20096;-51
2021/04/18 01:26:59;;;;;;;19.52;16.10;;;;;;;5.98;100.00;96471.53;5048536;28;20076;-48
2021/04/18 01:29:27;;;;;;;19.85;15.95;;;;;;;6.04;100.00;96471.06;5056224;28;20474;-53
2021/04/18 01:31:54;;;;;;;21.92;16.30;;;;;;;6.12;100.00;96471.31;5055092;28;20065;-51
2021/04/18 01:34:22;;;;;;;21.80;16.48;;;;;;;5.95;100.00;96459.50;5048488;28;20064;-54
2021/04/18 01:36:49;;;;;;;21.67;15.82;;;;;;;5.82;100.00;96471.84;5054355;28;20080;-56
2021/04/18 01:39:18;;;;;;;19.85;16.20;;;;;;;5.85;100.00;96467.19;5038619;28;20042;-53
2021/04/18 01:41:46;;;;;;;20.17;15.80;;;;;;;5.90;100.00;96465.06;5015358;28;20057;-51
2021/04/18 01:44:15;;;;;;;19.40;15.88;;;;;;;5.87;100.00;96459.22;5009525;28;20069;-51
2021/04/18 01:46:44;;;;;;;21.40;16.40;;;;;;;6.05;100.00;96468.31;5016554;28;20080;-52
2021/04/18 01:49:12;;;;;;;20.33;15.95;;;;;;;6.14;100.00;96464.19;5000172;28;20143;-55
2021/04/18 01:51:39;;;;;;;20.73;16.33;;;;;;;6.12;100.00;96466.06;5025001;28;20456;-49
2021/04/18 01:54:06;;;;;;;20.52;16.50;;;;;;;6.16;100.00;96472.75;5022041;28;20065;-49
2021/04/18 01:56:35;;;;;;;21.20;16.35;;;;;;;6.25;100.00;96468.59;5017223;28;20465;-53
2021/04/18 01:59:03;;;;;;;21.38;16.90;;;;;;;6.31;100.00;96474.19;5018370;28;20068;-51
2021/04/18 02:01:30;;;;;;;20.05;16.00;;;;;;;6.25;100.00;96472.03;5005250;28;20084;-49
2021/04/18 02:03:58;;;;;;;21.08;15.77;;;;;;;6.28;100.00;96469.19;4999754;28;20528;-53
2021/04/18 02:06:26;;;;;;;21.27;16.17;;;;;;;6.33;100.00;96474.06;5017261;28;20089;-52
2021/04/18 02:08:54;;;;;;;20.60;16.42;;;;;;;6.17;100.00;96469.19;5018934;28;20590;-52
2021/04/18 02:11:21;;;;;;;20.60;16.23;;;;;;;6.23;100.00;96470.47;5015858;28;20057;-52
2021/04/18 02:13:49;;;;;;;21.23;16.60;;;;;;;6.17;100.00;96456.91;5015559;28;20074;-51
2021/04/18 02:16:17;;;;;;;20.55;16.77;;;;;;;6.12;100.00;96466.06;5020268;28;20091;-54
2021/04/18 02:18:45;;;;;;;22.02;17.30;;;;;;;6.46;100.00;96460.84;5021067;28;20487;-51
2021/04/18 02:21:12;;;;;;;21.00;16.70;;;;;;;6.48;100.00;96462.41;5017382;28;20511;-52
2021/04/18 02:23:40;;;;;;;20.33;16.77;;;;;;;6.36;100.00;96463.34;5015988;28;20065;-55
2021/04/18 02:26:08;;;;;;;21.05;16.55;;;;;;;6.20;100.00;96462.88;5014766;28;20068;-51
2021/04/18 02:28:35;;;;;;;24.17;18.25;;;;;;;6.33;100.00;96467.06;5005481;28;20062;-54
2021/04/18 02:31:03;;;;;;;21.90;17.13;;;;;;;6.41;100.00;96458.59;5005938;28;20085;-52
2021/04/18 02:33:31;;;;;;;21.80;17.45;;;;;;;6.61;100.00;96459.69;5007147;28;20089;-56
2021/04/18 02:36:00;;;;;;;24.90;18.40;;;;;;;6.54;100.00;96463.75;5006995;28;20073;-54
2021/04/18 02:38:27;;;;;;;22.38;17.92;;;;;;;6.51;100.00;96456.94;5012408;28;20076;-53
2021/04/18 02:40:55;;;;;;;22.77;17.55;;;;;;;6.44;100.00;96457.53;5019210;28;20080;-48
2021/04/18 02:43:23;;;;;;;22.35;17.63;;;;;;;6.59;100.00;96458.97;5021431;28;20469;-50
2021/04/18 02:45:50;;;;;;;23.80;18.08;;;;;;;6.61;100.00;96455.28;5021879;28;20092;-53
2021/04/18 02:48:19;;;;;;;23.23;17.83;;;;;;;6.59;100.00;96453.72;5012649;28;20503;-51
2021/04/18 02:50:47;;;;;;;23.80;17.85;;;;;;;6.43;100.00;96451.44;5010190;28;20065;-53
2021/04/18 02:53:14;;;;;;;22.38;17.23;;;;;;;6.31;100.00;96452.41;5016317;28;20069;-52
2021/04/18 02:55:42;;;;;;;22.35;17.55;;;;;;;6.21;100.00;96449.66;5021924;28;20065;-51
2021/04/18 02:58:09;;;;;;;21.52;17.70;;;;;;;6.21;100.00;96454.06;5019111;28;20089;-54
2021/04/18 03:00:36;;;;;;;22.27;17.45;;;;;;;6.16;100.00;96459.66;5017669;28;20085;-51
2021/04/18 03:03:05;;;;;;;21.98;17.13;;;;;;;6.23;100.00;96447.78;5015721;28;20080;-56
2021/04/18 03:05:33;;;;;;;21.58;16.73;;;;;;;6.23;100.00;96449.53;5011302;28;20064;-50
2021/04/18 03:08:01;;;;;;;22.38;17.90;;;;;;;6.10;100.00;96455.72;5011253;28;20065;-52
2021/04/18 03:10:28;;;;;;;22.70;17.20;;;;;;;5.98;100.00;96450.59;5000273;28;20069;-51
2021/04/18 03:12:56;;;;;;;31.50;21.15;;;;;;;6.08;100.00;96447.16;5005080;28;20077;-56
2021/04/18 03:15:24;;;;;;;23.10;17.27;;;;;;;5.91;100.00;96442.31;5005290;28;20074;-51
2021/04/18 03:17:51;;;;;;;24.00;18.60;;;;;;;5.93;100.00;96448.31;5006282;28;20065;-51
2021/04/18 03:20:19;;;;;;;21.77;17.15;;;;;;;5.89;100.00;96445.06;5004417;28;20058;-53
2021/04/18 03:22:47;;;;;;;23.27;17.73;;;;;;;6.04;100.00;96447.50;5002259;28;20070;-51
2021/04/18 03:25:15;;;;;;;23.77;17.42;;;;;;;5.89;100.00;96447.69;5006475;28;20041;-52
2021/04/18 03:27:43;;;;;;;24.73;18.60;;;;;;;5.84;100.00;96446.38;5014172;28;20093;-47
2021/04/18 03:30:11;;;;;;;24.50;19.15;;;;;;;5.85;100.00;96454.13;5017521;28;20463;-53
2021/04/18 03:32:38;;;;;;;24.25;18.33;;;;;;;5.89;100.00;96441.63;5011755;28;20030;-55
2021/04/18 03:35:07;;;;;;;24.33;18.20;;;;;;;5.75;100.00;96445.28;5016036;28;20072;-50
2021/04/18 03:37:35;;;;;;;24.15;17.73;;;;;;;5.81;100.00;96447.41;5009447;28;20093;-51
2021/04/18 03:40:04;;;;;;;23.88;16.60;;;;;;;5.69;100.00;96446.56;5000577;28;20081;-56
2021/04/18 03:42:32;;;;;;;22.67;17.23;;;;;;;5.61;100.00;96445.47;5007632;28;20086;-50
2021/04/18 03:45:03;;;;;;;25.58;18.48;;;;;;;5.67;100.00;96451.06;5014871;28;20080;-52
2021/04/18 03:47:30;;;;;;;28.70;19.50;;;;;;;5.74;100.00;96450.63;5006443;28;20069;-55
2021/04/18 03:49:58;;;;;;;24.60;19.00;;;;;;;5.75;100.00;96442.66;5008633;28;20550;-52
2021/04/18 03:52:26;;;;;;;25.15;18.63;;;;;;;5.75;100.00;96449.66;5016164;28;20496;-56
2021/04/18 03:54:53;;;;;;;24.35;18.20;;;;;;;5.79;100.00;96448.50;4997817;28;20457;-52
2021/04/18 03:57:22;;;;;;;24.33;18.48;;;;;;;5.76;100.00;96446.13;5006136;28;20477;-52
2021/04/18 03:59:50;;;;;;;22.70;17.40;;;;;;;5.66;100.00;96445.97;5003053;28;20069;-56
2021/04/18 04:02:18;;;;;;;23.27;17.90;;;;;;;5.70;100.00;96448.22;5014617;28;20511;-54
2021/04/18 04:04:46;;;;;;;23.20;17.02;;;;;;;5.71;100.00;96449.06;5019619;28;20455;-55
2021/04/18 04:07:14;;;;;;;28.20;17.20;;;;;;;5.70;100.00;96450.00;5016759;28;20080;-51
2021/04/18 04:09:42;;;;;;;28.23;18.48;;;;;;;5.79;100.00;96446.72;5017592;28;20072;-57
2021/04/18 04:12:10;;;;;;;21.55;16.80;;;;;;;5.78;100.00;96446.81;5010791;28;20061;-54
2021/04/18 04:14:38;;;;;;;23.02;17.13;;;;;;;5.67;100.00;96445.84;5016910;28;20069;-51
2021/04/18 04:17:06;;;;;;;22.77;17.23;;;;;;;5.62;100.00;96449.75;5016508;28;20069;-49
2021/04/18 04:19:33;;;;;;;20.92;16.35;;;;;;;5.60;100.00;96451.66;5018946;28;20080;-48
2021/04/18 04:22:45;;;;;;;21.85;16.40;;;;;;;5.61;100.00;96456.78;5013638;28;20060;-48
2021/04/18 04:25:13;;;;;;;24.63;17.10;;;;;;;5.60;100.00;96459.50;5012010;28;20116;-47
2021/04/18 04:27:40;;;;;;;22.38;17.05;;;;;;;5.65;100.00;96460.00;5012812;28;20073;-48
2021/04/18 04:30:10;;;;;;;22.77;16.90;;;;;;;5.63;100.00;96454.88;5019339;28;20068;-54
2021/04/18 04:32:38;;;;;;;21.52;16.88;;;;;;;5.66;100.00;96469.50;5016239;28;20062;-50
2021/04/18 04:35:06;;;;;;;23.90;17.20;;;;;;;5.63;100.00;96457.47;5013847;28;20061;-51
2021/04/18 04:37:34;;;;;;;23.40;16.30;;;;;;;5.58;100.00;96461.41;5011861;28;20068;-54
2021/04/18 04:40:02;;;;;;;21.60;16.35;;;;;;;5.51;100.00;96470.66;5009821;28;20066;-49
2021/04/18 04:42:29;;;;;;;24.23;17.20;;;;;;;5.51;100.00;96473.28;5015976;28;20065;-48
2021/04/18 04:44:57;;;;;;;22.58;16.73;;;;;;;5.47;100.00;96470.03;5016258;28;20079;-49
2021/04/18 04:47:25;;;;;;;22.65;17.52;;;;;;;5.54;100.00;96471.25;5013503;28;20110;-48
2021/04/18 04:49:53;;;;;;;23.50;17.08;;;;;;;5.53;100.00;96466.97;5013228;28;20072;-51
2021/04/18 04:52:20;;;;;;;25.08;17.27;;;;;;;5.70;100.00;96466.53;5019121;28;20072;-52
2021/04/18 04:54:48;;;;;;;23.23;17.33;;;;;;;5.65;100.00;96466.06;5011637;28;20081;-51
2021/04/18 04:57:15;;;;;;;23.20;16.58;;;;;;;5.64;100.00;96469.63;5012511;28;20076;-48
2021/04/18 04:59:43;;;;;;;23.15;17.25;;;;;;;5.57;100.00;96468.41;5014129;28;20068;-49
2021/04/18 05:02:11;;;;;;;24.33;16.75;;;;;;;5.57;100.00;96472.78;5009536;28;20068;-51
2021/04/18 05:04:39;;;;;;;21.55;16.80;;;;;;;5.82;100.00;96472.66;5015886;28;20057;-49
2021/04/18 05:07:07;;;;;;;23.70;16.80;;;;;;;5.88;100.00;96466.97;5019336;28;20084;-50
2021/04/18 05:09:34;;;;;;;24.33;17.20;;;;;;;5.87;100.00;96483.59;5023004;28;20084;-54
2021/04/18 05:12:04;;;;;;;24.35;17.50;;;;;;;5.89;100.00;96478.28;5015623;28;20073;-48
2021/04/18 05:14:31;;;;;;;23.27;17.25;;;;;;;5.91;100.00;96478.97;5020742;28;20080;-50
2021/04/18 05:16:59;;;;;;;23.48;17.30;;;;;;;5.83;100.00;96484.78;5019016;28;20069;-49
2021/04/18 05:19:27;;;;;;;22.30;17.70;;;;;;;5.91;100.00;96485.03;5018780;28;20121;-50
2021/04/18 05:21:56;;;;;;;24.33;17.08;;;;;;;5.97;100.00;96486.41;5013151;28;20416;-51
2021/04/18 05:24:24;;;;;;;25.15;17.20;;;;;;;6.03;100.00;96485.09;5022081;28;20092;-51
2021/04/18 05:26:51;;;;;;;23.63;17.35;;;;;;;5.85;100.00;96485.53;5018685;28;20083;-51
2021/04/18 05:29:44;;;;;;;23.88;16.20;;;;;;;5.67;100.00;96486.88;5011428;28;20040;-51
2021/04/18 05:32:11;;;;;;;23.15;16.95;;;;;;;5.81;100.00;96483.22;5013628;28;20081;-47
2021/04/18 05:34:39;;;;;;;22.85;16.30;;;;;;;5.80;100.00;96481.56;5019697;28;20069;-52
2021/04/18 05:37:07;;;;;;;25.38;17.95;;;;;;;5.81;100.00;96488.47;5021109;28;20531;-48
2021/04/18 05:39:36;;;;;;;24.02;17.52;;;;;;;6.15;100.00;96494.63;5005930;28;20089;-45
2021/04/18 05:42:04;;;;;;;22.42;16.45;;;;;;;6.02;100.00;96497.38;5020743;28;20539;-51
2021/04/18 05:44:31;;;;;;;23.20;17.42;;;;;;;6.34;100.00;96494.91;5020850;28;20069;-49
2021/04/18 05:46:59;;;;;;;23.30;17.35;;;;;;;6.10;100.00;96507.25;5026295;28;20137;-50
2021/04/18 05:49:26;;;;;;;23.10;16.88;;;;;;;6.31;100.00;96495.16;5014986;28;20476;-47
2021/04/18 05:51:54;;;;;;;24.20;16.52;;;;;;;6.36;100.00;96497.41;5018979;28;20178;-49
2021/04/18 05:54:22;;;;;;;23.60;16.95;;;;;;;6.23;100.00;96497.53;5021020;28;20084;-51
2021/04/18 05:56:49;;;;;;;25.25;17.40;;;;;;;6.30;100.00;96498.72;5022933;28;20061;-53
2021/04/18 05:59:17;;;;;;;23.80;16.85;;;;;;;6.47;100.00;96497.44;5017608;28;20069;-52
2021/04/18 06:01:45;;;;;;;23.20;17.13;;;;;;;6.51;100.00;96491.00;5005197;28;20080;-49
2021/04/18 06:04:13;;;;;;;24.23;17.40;;;;;;;6.71;100.00;96494.69;5004749;28;20061;-50
2021/04/18 06:06:40;;;;;;;23.02;15.70;;;;;;;6.28;100.00;96499.78;5004791;28;20081;-51
2021/04/18 06:09:08;;;;;;;25.17;16.95;;;;;;;6.49;100.00;96492.06;5014064;28;20070;-47
2021/04/18 06:11:37;;;;;;;25.98;17.08;;;;;;;6.52;100.00;96497.91;5014247;28;20073;-54
2021/04/18 06:14:04;;;;;;;24.40;17.35;;;;;;;6.45;100.00;96501.94;5017595;28;20080;-50
2021/04/18 06:16:31;;;;;;;23.95;17.15;;;;;;;6.68;100.00;96504.59;5021339;28;20076;-50
2021/04/18 06:18:59;;;;;;;24.63;17.10;;;;;;;6.79;100.00;96494.91;5020310;28;20085;-49
2021/04/18 06:21:27;;;;;;;23.35;16.90;;;;;;;7.22;100.00;96491.50;5021313;28;20085;-53
2021/04/18 06:23:55;;;;;;;24.30;17.95;;;;;;;7.57;100.00;96496.53;5020793;28;20069;-49
2021/04/18 06:26:22;;;;;;;23.67;17.00;;;;;;;7.64;100.00;96490.75;5014232;28;20527;-51
2021/04/18 06:28:51;;;;;;;24.92;17.50;;;;;;;7.43;100.00;96498.59;5022910;28;20483;-51
2021/04/18 06:31:18;;;;;;;22.00;16.98;;;;;;;7.64;100.00;96496.00;5016367;28;20516;-49
2021/04/18 06:33:46;;;;;;;23.02;16.90;;;;;;;7.72;100.00;96493.63;5022067;28;20523;-47
2021/04/18 06:36:15;;;;;;;25.67;16.75;;;;;;;7.85;100.00;96489.84;5018136;28;20574;-48
2021/04/18 06:38:42;;;;;;;23.67;17.52;;;;;;;8.06;100.00;96492.47;5008549;28;20486;-48
2021/04/18 06:41:16;;;;;;;23.20;17.70;;;;;;;8.16;100.00;96489.09;5006182;28;20062;-48
2021/04/18 06:43:44;;;;;;;24.45;17.55;;;;;;;8.44;100.00;96485.81;5005316;28;20081;-53
2021/04/18 06:46:15;;;;;;;24.80;17.88;;;;;;;8.48;100.00;96489.84;5006124;28;20463;-49
2021/04/18 06:48:44;;;;;;;22.45;17.55;;;;;;;8.92;100.00;96481.72;5007921;28;20554;-49
2021/04/18 06:51:11;;;;;;;21.45;16.73;;;;;;;8.88;100.00;96482.94;4996699;28;20460;-51
2021/04/18 06:53:39;;;;;;;22.98;17.13;;;;;;;8.11;100.00;96488.63;4997678;28;20543;-49
2021/04/18 06:56:07;;;;;;;22.15;16.98;;;;;;;8.18;100.00;96484.53;5003937;28;20112;-51
2021/04/18 06:58:35;;;;;;;22.88;17.33;;;;;;;8.17;100.00;96494.19;5006552;28;20476;-49
2021/04/18 07:01:04;;;;;;;23.05;16.65;;;;;;;8.24;100.00;96487.47;5007590;28;20074;-49
2021/04/18 07:03:33;;;;;;;22.48;16.75;;;;;;;8.24;100.00;96487.47;4998798;28;20169;-51
2021/04/18 07:06:02;;;;;;;21.48;17.00;;;;;;;8.14;100.00;96491.84;5011224;28;20161;-51
2021/04/18 07:08:30;;;;;;;23.13;16.85;;;;;;;7.81;100.00;96492.84;5017191;28;20073;-53
2021/04/18 07:11:11;;;;;;;20.50;16.92;;;;;;;8.12;100.00;96487.66;5014241;28;20057;-54
2021/04/18 07:13:40;;;;;;;22.10;16.30;;;;;;;8.84;100.00;96484.16;5014512;28;20073;-51
2021/04/18 07:16:24;;;;;;;20.45;16.58;;;;;;;9.12;100.00;96485.22;5022282;28;20549;-48
2021/04/18 07:18:53;;;;;;;19.58;15.98;;;;;;;9.08;100.00;96484.66;5020723;28;20085;-50
2021/04/18 07:21:22;;;;;;;23.35;16.25;;;;;;;9.15;100.00;96485.81;5023644;28;20643;-52
2021/04/18 07:23:50;;;;;;;22.10;16.23;;;;;;;9.11;100.00;96489.66;5017524;28;20476;-51
2021/04/18 07:26:21;;;;;;;19.35;15.65;;;;;;;9.15;100.00;96485.81;5015422;28;20116;-49
2021/04/18 07:28:49;;;;;;;20.80;16.83;;;;;;;8.71;100.00;96489.69;5014403;28;20088;-52
2021/04/18 07:31:30;;;;;;;20.27;16.25;;;;;;;8.90;100.00;96481.84;5011121;28;20077;-49
2021/04/18 07:34:03;;;;;;;19.77;16.50;;;;;;;9.52;100.00;96485.16;5010930;28;20493;-51
2021/04/18 07:36:31;;;;;;;18.52;15.23;;;;;;;9.42;100.00;96486.94;5016940;28;20097;-52
2021/04/18 07:38:59;;;;;;;21.77;17.60;;;;;;;8.97;100.00;96484.78;5014529;28;20088;-47
2021/04/18 07:41:26;;;;;;;21.40;16.08;;;;;;;9.29;100.00;96481.97;5011794;28;20073;-48
2021/04/18 07:43:54;;;;;;;22.38;17.20;;;;;;;9.64;100.00;96481.44;5017475;28;20073;-53
2021/04/18 07:46:21;;;;;;;18.90;15.48;;;;;;;9.00;100.00;96479.25;5021318;28;20071;-51
2021/04/18 07:48:49;;;;;;;19.92;16.58;;;;;;;8.53;100.00;96484.19;5021621;28;20081;-48
2021/04/18 07:51:20;;;;;;;21.00;17.42;;;;;;;8.77;100.00;96478.63;5018452;28;20045;-53
2021/04/18 07:53:47;;;;;;;21.48;17.33;;;;;;;8.87;100.00;96484.72;5009268;28;20072;-51
2021/04/18 07:56:15;;;;;;;21.95;17.38;;;;;;;8.52;100.00;96491.25;5014558;28;20073;-50
2021/04/18 07:58:45;;;;;;;21.95;17.35;;;;;;;8.68;100.00;96489.94;5017255;28;20062;-53
2021/04/18 08:01:13;;;;;;;22.60;17.90;;;;;;;9.77;100.00;96481.13;5013932;28;20076;-53
2021/04/18 08:03:44;;;;;;;20.95;16.65;;;;;;;10.13;100.00;96487.50;5018627;28;20120;-52
2021/04/18 08:06:13;;;;;;;24.02;18.33;;;;;;;10.10;100.00;96485.13;5015493;28;20538;-51
2021/04/18 08:08:49;;;;;;;23.70;18.15;;;;;;;9.63;100.00;96490.28;5003829;28;20452;-51
2021/04/18 08:11:18;;;;;;;24.98;18.02;;;;;;;9.89;100.00;96480.03;5005835;28;20072;-51
2021/04/18 08:13:48;;;;;;;25.05;18.65;;;;;;;9.93;100.00;96491.13;5020950;28;20096;-52
2021/04/18 08:16:17;;;;;;;23.17;18.05;;;;;;;9.32;100.00;96488.72;5015235;28;20156;-52
2021/04/18 08:18:46;;;;;;;25.75;19.75;;;;;;;9.39;100.00;96484.56;4999455;28;20321;-48
2021/04/18 08:21:25;;;;;;;24.65;18.42;;;;;;;9.20;100.00;96490.66;5010149;28;20432;-48
2021/04/18 08:23:54;;;;;;;25.35;19.75;;;;;;;9.92;100.00;96481.56;5018664;28;20076;-47
2021/04/18 08:26:23;;;;;;;22.20;17.17;;;;;;;9.44;100.00;96491.09;4998832;28;20093;-53
2021/04/18 08:29:10;;;;;;;23.02;18.35;;;;;;;9.77;100.00;96485.56;5007281;28;20061;-50
2021/04/18 08:32:02;;;;;;;26.13;20.13;;;;;;;9.68;100.00;96493.34;4993888;28;20077;-54
2021/04/18 08:34:31;;;;;;;26.52;19.75;;;;;;;9.63;100.00;96489.44;4999585;28;20468;-56
2021/04/18 08:37:01;;;;;;;28.25;21.73;;;;;;;9.11;100.00;96499.34;5017604;28;20077;-49
2021/04/18 08:39:47;;;;;;;27.35;21.40;;;;;;;9.83;100.00;96492.94;5019103;28;20070;-49
2021/04/18 08:42:27;;;;;;;27.70;21.40;;;;;;;9.98;100.00;96494.19;5012605;28;20329;-52
2021/04/18 08:44:55;;;;;;;25.65;20.80;;;;;;;9.45;100.00;96486.66;5016451;28;20066;-53
2021/04/18 08:47:25;;;;;;;25.15;19.70;;;;;;;9.49;100.00;96490.69;5018105;28;20057;-50
2021/04/18 08:49:56;;;;;;;25.92;20.80;;;;;;;9.06;100.00;96494.50;5020163;28;20645;-52
2021/04/18 08:52:27;;;;;;;30.63;22.85;;;;;;;9.39;100.00;96492.47;5015586;28;20072;-52
2021/04/18 08:54:57;;;;;;;30.55;22.35;;;;;;;9.58;100.00;96496.94;5017173;28;20084;-54
2021/04/18 08:57:26;;;;;;;29.55;22.00;;;;;;;9.21;100.00;96492.31;5016166;28;20515;-53
2021/04/18 08:59:56;;;;;;;28.65;22.42;;;;;;;9.03;100.00;96500.03;5024811;28;20087;-51
2021/04/18 09:02:24;;;;;;;30.60;22.58;;;;;;;9.23;100.00;96503.53;5017514;28;20149;-49
2021/04/18 09:04:54;;;;;;;30.70;23.67;;;;;;;10.10;100.00;96506.22;5018507;28;20057;-51
2021/04/18 09:07:24;;;;;;;27.77;21.98;;;;;;;9.82;100.00;96505.25;5013197;28;20062;-50
2021/04/18 09:09:58;;;;;;;30.17;22.65;;;;;;;10.84;96.27;96500.25;5012075;28;20479;-50
2021/04/18 09:12:26;;;;;;;28.63;22.97;;;;;;;10.75;92.17;96505.56;5021981;28;20100;-54
2021/04/18 09:14:54;;;;;;;31.23;23.38;;;;;;;11.00;93.32;96496.13;5017885;28;20483;-51
2021/04/18 09:17:23;;;;;;;30.83;23.40;;;;;;;11.02;96.15;96496.84;5006949;28;20062;-51
2021/04/18 09:19:52;;;;;;;26.25;21.00;;;;;;;10.66;100.00;96499.31;5004332;28;20065;-51
2021/04/18 09:22:21;;;;;;;27.35;21.45;;;;;;;10.38;93.80;96496.63;5013096;28;20570;-54
2021/04/18 09:24:54;;;;;;;26.52;22.25;;;;;;;10.42;99.11;96502.44;5020036;28;20073;-54
2021/04/18 09:27:25;;;;;;;30.85;22.63;;;;;;;9.89;97.98;96500.28;5021840;28;20555;-55
2021/04/18 09:29:54;;;;;;;30.60;22.88;;;;;;;10.70;93.70;96498.03;5020730;28;20069;-51
2021/04/18 09:32:22;;;;;;;28.38;22.27;;;;;;;10.75;86.29;96498.47;5020374;28;20088;-51
2021/04/18 09:34:51;;;;;;;28.85;22.42;;;;;;;11.76;78.60;96498.44;5012885;28;20064;-53
2021/04/18 09:37:22;;;;;;;28.15;21.10;;;;;;;11.36;86.84;96495.25;5018401;28;20068;-52
2021/04/18 09:39:52;;;;;;;27.38;21.42;;;;;;;11.43;86.11;96497.28;5018217;28;20081;-55
2021/04/18 09:42:19;;;;;;;;;;;;;;;11.07;91.99;96505.13;5015289;28;20080;-56
2021/04/18 09:44:50;;;;;;;20.45;15.57;;;;;;;10.62;87.12;96506.69;5015626;28;19972;-56
2021/04/18 09:47:20;;;;;;;22.73;17.83;;;;;;;10.58;100.00;96504.50;5020768;28;20076;-52
2021/04/18 09:49:57;;;;;;;22.50;17.98;;;;;;;11.45;89.86;96498.78;5014634;28;20065;-55
2021/04/18 09:52:29;;;;;;;21.35;17.27;;;;;;;12.35;72.50;96503.09;5023823;28;20069;-57
2021/04/18 09:55:08;;;;;;;20.98;17.45;;;;;;;12.65;69.91;96500.13;5017460;28;20092;-56
2021/04/18 09:57:46;;;;;;;20.67;16.75;;;;;;;12.16;82.32;96499.81;5016108;28;20085;-57
2021/04/18 10:00:17;;;;;;;20.45;15.23;;;;;;;11.98;71.55;96492.72;5013464;28;20065;-57
2021/04/18 10:03:08;;;;;;;20.13;16.98;;;;;;;12.01;79.30;96488.94;5015979;28;20065;-53
2021/04/18 10:05:39;;;;;;;19.10;15.93;;;;;;;11.74;82.75;96490.69;5012722;28;20069;-54
2021/04/18 10:08:31;;;;;;;18.50;15.50;;;;;;;11.69;77.61;96492.09;5020526;28;20037;-57
2021/04/18 10:11:17;;;;;;;20.63;16.75;;;;;;;12.20;68.06;96494.06;5003647;28;20080;-56
2021/04/18 10:13:48;;;;;;;17.38;15.23;;;;;;;11.07;76.79;96492.75;5020920;28;20064;-58
2021/04/18 10:16:23;;;;;;;18.45;15.57;;;;;;;11.77;85.97;96489.56;5019775;28;20077;-54
2021/04/18 10:19:05;;;;;;;16.92;14.45;;;;;;;11.49;73.66;96489.59;5016290;28;20081;-55
2021/04/18 10:21:33;;;;;;;16.45;13.10;;;;;;;11.58;77.88;96486.06;5010013;28;20601;-55
2021/04/18 10:24:01;;;;;;;17.92;14.15;;;;;;;11.24;73.10;96488.50;5014198;28;20538;-54
2021/04/18 10:26:31;;;;;;;16.15;13.45;;;;;;;10.60;77.81;96492.84;5011891;28;20526;-56
2021/04/18 10:29:01;;;;;;;19.45;15.50;;;;;;;10.55;83.51;96491.59;5018152;28;20057;-51
2021/04/18 10:31:33;;;;;;;20.38;15.43;;;;;;;11.33;80.78;96484.97;5014568;28;20081;-57
2021/04/18 10:34:01;;;;;;;18.95;15.88;;;;;;;11.88;74.08;96491.97;5012949;28;20483;-57
2021/04/18 10:36:29;;;;;;;18.90;15.32;;;;;;;11.51;72.01;96482.34;5014189;28;20468;-57
2021/04/18 10:38:56;;;;;;;17.48;14.20;;;;;;;12.09;67.72;96483.72;5019736;28;20554;-53
2021/04/18 10:41:24;;;;;;;16.70;13.48;;;;;;;11.32;75.74;96491.25;5012664;28;21418;-56
2021/04/18 10:43:51;;;;;;;18.65;14.77;;;;;;;11.28;71.86;96486.41;5021364;28;20065;-54
2021/04/18 10:46:18;;;;;;;18.27;14.77;;;;;;;11.46;71.06;96487.28;5015855;28;20058;-51
2021/04/18 10:48:47;;;;;;;15.32;12.77;;;;;;;12.25;61.27;96483.00;5023312;28;20519;-56
2021/04/18 10:51:14;;;;;;;17.38;14.55;;;;;;;12.96;60.39;96480.13;5020856;28;20097;-54
2021/04/18 10:53:42;;;;;;;18.33;14.63;;;;;;;11.14;74.33;96477.16;5013218;28;20073;-56
2021/04/18 10:56:10;;;;;;;19.98;16.10;;;;;;;11.53;76.54;96477.75;5016956;28;20084;-54
2021/04/18 10:58:38;;;;;;;18.88;16.63;;;;;;;11.65;75.15;96479.19;5018162;28;20061;-57
2021/04/18 11:01:05;;;;;;;16.42;14.15;;;;;;;11.79;72.91;96480.47;5012932;28;20540;-57
2021/04/18 11:03:33;;;;;;;19.08;15.25;;;;;;;12.15;70.30;96471.69;5019221;28;20499;-57
2021/04/18 11:06:02;;;;;;;17.38;15.07;;;;;;;11.64;67.99;96474.91;5022126;28;20476;-57
2021/04/18 11:08:30;;;;;;;16.55;14.75;;;;;;;12.80;61.87;96459.72;5016620;28;20451;-56
2021/04/18 11:10:57;;;;;;;17.58;13.75;;;;;;;10.79;71.12;96468.19;5013810;28;20558;-53
2021/04/18 11:13:26;;;;;;;16.77;14.40;;;;;;;11.93;72.14;96471.22;5001946;28;20457;-55
2021/04/18 11:15:53;;;;;;;15.95;14.00;;;;;;;12.34;62.39;96460.94;5014979;28;20069;-58
2021/04/18 11:18:20;;;;;;;16.58;14.02;;;;;;;11.87;70.00;96458.59;5018544;28;20076;-58
2021/04/18 11:20:49;;;;;;;17.92;14.52;;;;;;;11.71;69.97;96469.00;5018417;28;20065;-59
2021/04/18 11:23:17;;;;;;;17.10;13.98;;;;;;;11.63;69.79;96472.38;5016041;28;20107;-59
2021/04/18 11:25:44;;;;;;;19.40;14.00;;;;;;;10.47;78.32;96475.66;5019085;28;20058;-58